sensor_id;sensor_type;location;lat;lon;timestamp;P1;durP1;ratioP1;P2;durP2;ratioP2
31732;SDS011;18312;51.486;7.144;2022-12-07T00:01:18;45.78;;;19.58;;
31732;SDS011;18312;51.486;7.144;2022-12-07T00:06:31;38.17;;;17.75;;
31732;SDS011;18312;51.486;7.144;2022-12-07T00:08:58;48.03;;;20.27;;
31732;SDS011;18312;51.486;7.144;2022-12-07T00:11:26;48.03;;;19.17;;
31732;SDS011;18312;51.486;7.144;2022-12-07T00:13:53;46.13;;;18.90;;
31732;SDS011;18312;51.486;7.144;2022-12-07T00:16:24;44.90;;;18.55;;
31732;SDS011;18312;51.486;7.144;2022-12-07T00:18:52;37.60;;;18.00;;
31732;SDS011;18312;51.486;7.144;2022-12-07T00:21:21;44.22;;;18.73;;
31732;SDS011;18312;51.486;7.144;2022-12-07T00:23:49;37.47;;;16.27;;
31732;SDS011;18312;51.486;7.144;2022-12-07T00:26:18;42.03;;;17.40;;
31732;SDS011;18312;51.486;7.144;2022-12-07T00:28:46;40.63;;;19.45;;
31732;SDS011;18312;51.486;7.144;2022-12-07T00:31:15;37.70;;;17.60;;
31732;SDS011;18312;51.486;7.144;2022-12-07T00:33:44;32.05;;;16.23;;
31732;SDS011;18312;51.486;7.144;2022-12-07T00:36:14;38.80;;;18.15;;
31732;SDS011;18312;51.486;7.144;2022-12-07T00:38:42;40.80;;;18.15;;
31732;SDS011;18312;51.486;7.144;2022-12-07T00:41:10;43.83;;;18.35;;
31732;SDS011;18312;51.486;7.144;2022-12-07T00:43:39;46.97;;;17.63;;
31732;SDS011;18312;51.486;7.144;2022-12-07T00:46:07;41.17;;;17.35;;
31732;SDS011;18312;51.486;7.144;2022-12-07T00:48:34;38.72;;;18.33;;
31732;SDS011;18312;51.486;7.144;2022-12-07T00:51:03;37.58;;;17.42;;
31732;SDS011;18312;51.486;7.144;2022-12-07T00:53:31;36.17;;;17.33;;
31732;SDS011;18312;51.486;7.144;2022-12-07T00:56:04;38.17;;;17.88;;
31732;SDS011;18312;51.486;7.144;2022-12-07T00:58:31;40.03;;;18.48;;
31732;SDS011;18312;51.486;7.144;2022-12-07T01:00:59;40.60;;;17.67;;
31732;SDS011;18312;51.486;7.144;2022-12-07T01:03:27;46.90;;;18.17;;
31732;SDS011;18312;51.486;7.144;2022-12-07T01:05:55;43.83;;;18.55;;
31732;SDS011;18312;51.486;7.144;2022-12-07T01:08:24;51.83;;;18.45;;
31732;SDS011;18312;51.486;7.144;2022-12-07T01:10:57;45.55;;;19.50;;
31732;SDS011;18312;51.486;7.144;2022-12-07T01:13:25;41.20;;;18.98;;
31732;SDS011;18312;51.486;7.144;2022-12-07T01:15:55;45.45;;;20.17;;
31732;SDS011;18312;51.486;7.144;2022-12-07T01:18:25;45.53;;;19.80;;
31732;SDS011;18312;51.486;7.144;2022-12-07T01:20:59;57.08;;;21.08;;
31732;SDS011;18312;51.486;7.144;2022-12-07T01:23:28;50.28;;;19.98;;
31732;SDS011;18312;51.486;7.144;2022-12-07T01:25:56;43.50;;;19.52;;
31732;SDS011;18312;51.486;7.144;2022-12-07T01:28:24;50.40;;;19.70;;
31732;SDS011;18312;51.486;7.144;2022-12-07T01:30:55;49.75;;;21.08;;
31732;SDS011;18312;51.486;7.144;2022-12-07T01:33:24;47.40;;;22.13;;
31732;SDS011;18312;51.486;7.144;2022-12-07T01:35:52;47.72;;;21.38;;
31732;SDS011;18312;51.486;7.144;2022-12-07T01:38:19;48.85;;;20.55;;
31732;SDS011;18312;51.486;7.144;2022-12-07T01:40:54;52.78;;;21.02;;
31732;SDS011;18312;51.486;7.144;2022-12-07T01:43:21;44.50;;;20.15;;
31732;SDS011;18312;51.486;7.144;2022-12-07T01:45:51;57.35;;;20.45;;
31732;SDS011;18312;51.486;7.144;2022-12-07T01:48:19;43.90;;;20.25;;
31732;SDS011;18312;51.486;7.144;2022-12-07T01:50:50;51.55;;;19.35;;
31732;SDS011;18312;51.486;7.144;2022-12-07T01:53:19;52.58;;;22.15;;
31732;SDS011;18312;51.486;7.144;2022-12-07T01:55:51;59.92;;;20.77;;
31732;SDS011;18312;51.486;7.144;2022-12-07T01:58:21;44.42;;;19.92;;
31732;SDS011;18312;51.486;7.144;2022-12-07T02:00:48;56.75;;;20.73;;
31732;SDS011;18312;51.486;7.144;2022-12-07T02:03:22;46.95;;;19.70;;
31732;SDS011;18312;51.486;7.144;2022-12-07T02:05:51;45.78;;;19.80;;
31732;SDS011;18312;51.486;7.144;2022-12-07T02:08:20;47.20;;;20.13;;
31732;SDS011;18312;51.486;7.144;2022-12-07T02:10:47;53.00;;;19.83;;
31732;SDS011;18312;51.486;7.144;2022-12-07T02:13:16;48.58;;;20.90;;
31732;SDS011;18312;51.486;7.144;2022-12-07T02:15:59;45.95;;;19.00;;
31732;SDS011;18312;51.486;7.144;2022-12-07T02:18:41;45.63;;;19.92;;
31732;SDS011;18312;51.486;7.144;2022-12-07T02:21:19;46.53;;;19.50;;
31732;SDS011;18312;51.486;7.144;2022-12-07T02:24:06;44.28;;;18.20;;
31732;SDS011;18312;51.486;7.144;2022-12-07T02:27:01;51.75;;;19.00;;
31732;SDS011;18312;51.486;7.144;2022-12-07T02:29:49;36.88;;;18.80;;
31732;SDS011;18312;51.486;7.144;2022-12-07T02:32:23;44.75;;;19.80;;
31732;SDS011;18312;51.486;7.144;2022-12-07T02:34:58;38.15;;;17.98;;
31732;SDS011;18312;51.486;7.144;2022-12-07T02:37:33;51.13;;;19.42;;
31732;SDS011;18312;51.486;7.144;2022-12-07T02:40:06;53.03;;;20.30;;
31732;SDS011;18312;51.486;7.144;2022-12-07T02:42:38;45.58;;;18.75;;
31732;SDS011;18312;51.486;7.144;2022-12-07T02:45:10;51.53;;;20.00;;
31732;SDS011;18312;51.486;7.144;2022-12-07T02:50:27;49.55;;;18.90;;
31732;SDS011;18312;51.486;7.144;2022-12-07T02:52:54;45.58;;;19.30;;
31732;SDS011;18312;51.486;7.144;2022-12-07T02:55:22;40.90;;;19.10;;
31732;SDS011;18312;51.486;7.144;2022-12-07T02:57:59;52.20;;;20.50;;
31732;SDS011;18312;51.486;7.144;2022-12-07T03:00:41;42.90;;;17.77;;
31732;SDS011;18312;51.486;7.144;2022-12-07T03:03:17;38.45;;;19.38;;
31732;SDS011;18312;51.486;7.144;2022-12-07T03:08:42;43.97;;;19.15;;
31732;SDS011;18312;51.486;7.144;2022-12-07T03:11:21;47.25;;;20.33;;
31732;SDS011;18312;51.486;7.144;2022-12-07T03:13:54;44.20;;;19.35;;
31732;SDS011;18312;51.486;7.144;2022-12-07T03:16:28;47.30;;;19.50;;
31732;SDS011;18312;51.486;7.144;2022-12-07T03:19:00;39.03;;;18.13;;
31732;SDS011;18312;51.486;7.144;2022-12-07T03:21:32;40.83;;;16.90;;
31732;SDS011;18312;51.486;7.144;2022-12-07T03:24:03;43.20;;;18.85;;
31732;SDS011;18312;51.486;7.144;2022-12-07T03:26:35;49.50;;;19.08;;
31732;SDS011;18312;51.486;7.144;2022-12-07T03:29:06;49.88;;;19.60;;
31732;SDS011;18312;51.486;7.144;2022-12-07T03:31:39;40.95;;;17.55;;
31732;SDS011;18312;51.486;7.144;2022-12-07T03:34:10;43.33;;;19.23;;
31732;SDS011;18312;51.486;7.144;2022-12-07T03:36:43;52.30;;;19.45;;
31732;SDS011;18312;51.486;7.144;2022-12-07T03:39:15;51.20;;;19.65;;
31732;SDS011;18312;51.486;7.144;2022-12-07T03:41:49;48.05;;;19.85;;
31732;SDS011;18312;51.486;7.144;2022-12-07T03:44:17;39.30;;;18.85;;
31732;SDS011;18312;51.486;7.144;2022-12-07T03:46:48;52.75;;;19.20;;
31732;SDS011;18312;51.486;7.144;2022-12-07T03:49:23;52.17;;;20.42;;
31732;SDS011;18312;51.486;7.144;2022-12-07T03:51:54;50.03;;;19.73;;
31732;SDS011;18312;51.486;7.144;2022-12-07T03:54:28;51.40;;;19.42;;
31732;SDS011;18312;51.486;7.144;2022-12-07T03:57:00;50.40;;;20.25;;
31732;SDS011;18312;51.486;7.144;2022-12-07T03:59:29;56.83;;;20.88;;
31732;SDS011;18312;51.486;7.144;2022-12-07T04:02:01;56.05;;;21.27;;
31732;SDS011;18312;51.486;7.144;2022-12-07T04:04:29;60.05;;;21.42;;
31732;SDS011;18312;51.486;7.144;2022-12-07T04:06:56;52.10;;;19.88;;
31732;SDS011;18312;51.486;7.144;2022-12-07T04:09:27;54.67;;;20.25;;
31732;SDS011;18312;51.486;7.144;2022-12-07T04:11:55;53.63;;;21.80;;
31732;SDS011;18312;51.486;7.144;2022-12-07T04:14:28;49.55;;;19.75;;
31732;SDS011;18312;51.486;7.144;2022-12-07T04:16:56;55.88;;;20.80;;
31732;SDS011;18312;51.486;7.144;2022-12-07T04:19:26;51.85;;;22.25;;
31732;SDS011;18312;51.486;7.144;2022-12-07T04:21:54;59.03;;;21.63;;
31732;SDS011;18312;51.486;7.144;2022-12-07T04:24:21;50.97;;;20.77;;
31732;SDS011;18312;51.486;7.144;2022-12-07T04:26:48;51.35;;;20.65;;
31732;SDS011;18312;51.486;7.144;2022-12-07T04:29:15;59.55;;;20.83;;
31732;SDS011;18312;51.486;7.144;2022-12-07T04:31:43;54.90;;;20.63;;
31732;SDS011;18312;51.486;7.144;2022-12-07T04:34:12;52.45;;;20.77;;
31732;SDS011;18312;51.486;7.144;2022-12-07T04:36:40;58.47;;;20.35;;
31732;SDS011;18312;51.486;7.144;2022-12-07T04:39:07;58.00;;;20.67;;
31732;SDS011;18312;51.486;7.144;2022-12-07T04:41:40;49.45;;;20.55;;
31732;SDS011;18312;51.486;7.144;2022-12-07T04:44:07;54.55;;;20.67;;
31732;SDS011;18312;51.486;7.144;2022-12-07T04:46:34;53.25;;;20.02;;
31732;SDS011;18312;51.486;7.144;2022-12-07T04:49:01;54.42;;;19.92;;
31732;SDS011;18312;51.486;7.144;2022-12-07T04:51:29;61.85;;;20.10;;
31732;SDS011;18312;51.486;7.144;2022-12-07T04:53:56;53.67;;;20.65;;
31732;SDS011;18312;51.486;7.144;2022-12-07T04:56:34;51.53;;;19.05;;
31732;SDS011;18312;51.486;7.144;2022-12-07T04:59:02;52.70;;;18.85;;
31732;SDS011;18312;51.486;7.144;2022-12-07T05:01:29;57.53;;;20.50;;
31732;SDS011;18312;51.486;7.144;2022-12-07T05:03:57;53.88;;;21.05;;
31732;SDS011;18312;51.486;7.144;2022-12-07T05:06:24;54.42;;;20.02;;
31732;SDS011;18312;51.486;7.144;2022-12-07T05:08:53;61.20;;;21.58;;
31732;SDS011;18312;51.486;7.144;2022-12-07T05:11:19;59.47;;;21.30;;
31732;SDS011;18312;51.486;7.144;2022-12-07T05:14:05;70.97;;;20.88;;
31732;SDS011;18312;51.486;7.144;2022-12-07T05:16:36;63.80;;;20.23;;
31732;SDS011;18312;51.486;7.144;2022-12-07T05:19:04;48.22;;;19.33;;
31732;SDS011;18312;51.486;7.144;2022-12-07T05:21:31;52.85;;;20.67;;
31732;SDS011;18312;51.486;7.144;2022-12-07T05:24:01;53.92;;;21.15;;
31732;SDS011;18312;51.486;7.144;2022-12-07T05:26:28;51.88;;;18.67;;
31732;SDS011;18312;51.486;7.144;2022-12-07T05:28:56;56.95;;;21.75;;
31732;SDS011;18312;51.486;7.144;2022-12-07T05:31:33;70.15;;;21.48;;
31732;SDS011;18312;51.486;7.144;2022-12-07T05:34:00;59.58;;;20.33;;
31732;SDS011;18312;51.486;7.144;2022-12-07T05:36:27;62.50;;;20.67;;
31732;SDS011;18312;51.486;7.144;2022-12-07T05:38:56;52.47;;;20.65;;
31732;SDS011;18312;51.486;7.144;2022-12-07T05:41:25;59.10;;;21.08;;
31732;SDS011;18312;51.486;7.144;2022-12-07T05:44:08;54.50;;;19.00;;
31732;SDS011;18312;51.486;7.144;2022-12-07T05:46:35;49.92;;;18.98;;
31732;SDS011;18312;51.486;7.144;2022-12-07T05:49:02;47.67;;;18.13;;
31732;SDS011;18312;51.486;7.144;2022-12-07T05:51:30;53.17;;;20.00;;
31732;SDS011;18312;51.486;7.144;2022-12-07T05:53:57;56.65;;;19.15;;
31732;SDS011;18312;51.486;7.144;2022-12-07T05:56:25;53.92;;;19.65;;
31732;SDS011;18312;51.486;7.144;2022-12-07T05:58:52;46.20;;;18.98;;
31732;SDS011;18312;51.486;7.144;2022-12-07T06:01:37;53.40;;;19.38;;
31732;SDS011;18312;51.486;7.144;2022-12-07T06:04:05;62.88;;;18.73;;
31732;SDS011;18312;51.486;7.144;2022-12-07T06:06:32;57.60;;;18.30;;
31732;SDS011;18312;51.486;7.144;2022-12-07T06:08:58;54.70;;;19.08;;
31732;SDS011;18312;51.486;7.144;2022-12-07T06:11:27;51.05;;;17.55;;
31732;SDS011;18312;51.486;7.144;2022-12-07T06:14:17;45.50;;;17.95;;
31732;SDS011;18312;51.486;7.144;2022-12-07T06:16:44;46.40;;;17.30;;
31732;SDS011;18312;51.486;7.144;2022-12-07T06:19:11;48.80;;;16.50;;
31732;SDS011;18312;51.486;7.144;2022-12-07T06:21:38;44.20;;;16.92;;
31732;SDS011;18312;51.486;7.144;2022-12-07T06:24:05;44.60;;;16.75;;
31732;SDS011;18312;51.486;7.144;2022-12-07T06:26:33;38.13;;;16.30;;
31732;SDS011;18312;51.486;7.144;2022-12-07T06:29:00;44.38;;;16.42;;
31732;SDS011;18312;51.486;7.144;2022-12-07T06:31:27;44.55;;;17.42;;
31732;SDS011;18312;51.486;7.144;2022-12-07T06:33:56;53.28;;;17.55;;
31732;SDS011;18312;51.486;7.144;2022-12-07T06:36:24;40.38;;;16.13;;
31732;SDS011;18312;51.486;7.144;2022-12-07T06:38:50;43.38;;;16.10;;
31732;SDS011;18312;51.486;7.144;2022-12-07T06:41:17;48.25;;;16.23;;
31732;SDS011;18312;51.486;7.144;2022-12-07T06:43:45;39.38;;;13.75;;
31732;SDS011;18312;51.486;7.144;2022-12-07T06:46:12;40.97;;;15.55;;
31732;SDS011;18312;51.486;7.144;2022-12-07T06:48:40;40.83;;;14.50;;
31732;SDS011;18312;51.486;7.144;2022-12-07T06:51:07;32.80;;;13.80;;
31732;SDS011;18312;51.486;7.144;2022-12-07T06:53:34;32.67;;;13.60;;
31732;SDS011;18312;51.486;7.144;2022-12-07T06:56:02;36.55;;;13.63;;
31732;SDS011;18312;51.486;7.144;2022-12-07T06:58:30;32.95;;;13.52;;
31732;SDS011;18312;51.486;7.144;2022-12-07T07:00:58;37.50;;;13.80;;
31732;SDS011;18312;51.486;7.144;2022-12-07T07:03:25;30.20;;;13.68;;
31732;SDS011;18312;51.486;7.144;2022-12-07T07:05:52;38.40;;;13.48;;
31732;SDS011;18312;51.486;7.144;2022-12-07T07:08:18;33.03;;;12.35;;
31732;SDS011;18312;51.486;7.144;2022-12-07T07:10:45;29.05;;;11.95;;
31732;SDS011;18312;51.486;7.144;2022-12-07T07:13:12;37.80;;;13.75;;
31732;SDS011;18312;51.486;7.144;2022-12-07T07:15:39;30.42;;;13.45;;
31732;SDS011;18312;51.486;7.144;2022-12-07T07:18:07;27.92;;;12.57;;
31732;SDS011;18312;51.486;7.144;2022-12-07T07:20:34;29.42;;;10.57;;
31732;SDS011;18312;51.486;7.144;2022-12-07T07:23:02;31.75;;;11.65;;
31732;SDS011;18312;51.486;7.144;2022-12-07T07:25:29;27.67;;;10.52;;
31732;SDS011;18312;51.486;7.144;2022-12-07T07:27:56;32.50;;;12.02;;
31732;SDS011;18312;51.486;7.144;2022-12-07T07:30:23;34.05;;;11.90;;
31732;SDS011;18312;51.486;7.144;2022-12-07T07:32:51;31.27;;;10.38;;
31732;SDS011;18312;51.486;7.144;2022-12-07T07:35:23;33.60;;;11.38;;
31732;SDS011;18312;51.486;7.144;2022-12-07T07:37:50;35.22;;;11.18;;
31732;SDS011;18312;51.486;7.144;2022-12-07T07:40:17;25.25;;;9.95;;
31732;SDS011;18312;51.486;7.144;2022-12-07T07:42:46;24.70;;;10.52;;
31732;SDS011;18312;51.486;7.144;2022-12-07T07:45:13;16.50;;;7.43;;
31732;SDS011;18312;51.486;7.144;2022-12-07T07:47:40;32.45;;;12.10;;
31732;SDS011;18312;51.486;7.144;2022-12-07T07:50:08;25.05;;;10.88;;
31732;SDS011;18312;51.486;7.144;2022-12-07T07:52:37;28.20;;;10.90;;
31732;SDS011;18312;51.486;7.144;2022-12-07T07:55:04;27.85;;;10.43;;
31732;SDS011;18312;51.486;7.144;2022-12-07T07:57:33;27.08;;;11.02;;
31732;SDS011;18312;51.486;7.144;2022-12-07T08:00:00;26.85;;;10.75;;
31732;SDS011;18312;51.486;7.144;2022-12-07T08:02:28;25.30;;;11.07;;
31732;SDS011;18312;51.486;7.144;2022-12-07T08:04:58;30.63;;;12.90;;
31732;SDS011;18312;51.486;7.144;2022-12-07T08:09:54;34.75;;;11.82;;
31732;SDS011;18312;51.486;7.144;2022-12-07T08:12:21;28.92;;;10.98;;
31732;SDS011;18312;51.486;7.144;2022-12-07T08:14:48;36.63;;;11.63;;
31732;SDS011;18312;51.486;7.144;2022-12-07T08:17:15;39.45;;;12.40;;
31732;SDS011;18312;51.486;7.144;2022-12-07T08:19:42;33.38;;;11.77;;
31732;SDS011;18312;51.486;7.144;2022-12-07T08:22:09;27.75;;;11.68;;
31732;SDS011;18312;51.486;7.144;2022-12-07T08:24:36;31.63;;;11.73;;
31732;SDS011;18312;51.486;7.144;2022-12-07T08:27:04;30.13;;;11.88;;
31732;SDS011;18312;51.486;7.144;2022-12-07T08:29:31;31.08;;;11.20;;
31732;SDS011;18312;51.486;7.144;2022-12-07T08:31:58;30.08;;;11.77;;
31732;SDS011;18312;51.486;7.144;2022-12-07T08:34:26;28.20;;;11.52;;
31732;SDS011;18312;51.486;7.144;2022-12-07T08:36:53;29.75;;;10.77;;
31732;SDS011;18312;51.486;7.144;2022-12-07T08:39:20;28.42;;;10.52;;
31732;SDS011;18312;51.486;7.144;2022-12-07T08:41:47;31.10;;;11.27;;
31732;SDS011;18312;51.486;7.144;2022-12-07T08:44:15;26.10;;;10.02;;
31732;SDS011;18312;51.486;7.144;2022-12-07T08:46:44;28.90;;;9.35;;
31732;SDS011;18312;51.486;7.144;2022-12-07T08:49:15;27.10;;;9.68;;
31732;SDS011;18312;51.486;7.144;2022-12-07T08:51:44;30.63;;;11.63;;
31732;SDS011;18312;51.486;7.144;2022-12-07T08:54:12;24.40;;;10.13;;
31732;SDS011;18312;51.486;7.144;2022-12-07T08:56:42;23.23;;;9.50;;
31732;SDS011;18312;51.486;7.144;2022-12-07T08:59:10;27.05;;;11.02;;
31732;SDS011;18312;51.486;7.144;2022-12-07T09:01:42;24.33;;;9.40;;
31732;SDS011;18312;51.486;7.144;2022-12-07T09:04:09;19.58;;;8.90;;
31732;SDS011;18312;51.486;7.144;2022-12-07T09:06:36;17.98;;;9.05;;
31732;SDS011;18312;51.486;7.144;2022-12-07T09:09:03;20.42;;;9.25;;
31732;SDS011;18312;51.486;7.144;2022-12-07T09:11:31;27.50;;;10.57;;
31732;SDS011;18312;51.486;7.144;2022-12-07T09:13:58;22.00;;;9.75;;
31732;SDS011;18312;51.486;7.144;2022-12-07T09:16:25;25.83;;;10.05;;
31732;SDS011;18312;51.486;7.144;2022-12-07T09:18:53;25.30;;;9.18;;
31732;SDS011;18312;51.486;7.144;2022-12-07T09:21:20;23.70;;;9.88;;
31732;SDS011;18312;51.486;7.144;2022-12-07T09:23:47;29.67;;;9.80;;
31732;SDS011;18312;51.486;7.144;2022-12-07T09:26:14;28.58;;;10.50;;
31732;SDS011;18312;51.486;7.144;2022-12-07T09:28:40;19.20;;;8.85;;
31732;SDS011;18312;51.486;7.144;2022-12-07T09:31:07;33.03;;;9.65;;
31732;SDS011;18312;51.486;7.144;2022-12-07T09:33:34;24.10;;;10.10;;
31732;SDS011;18312;51.486;7.144;2022-12-07T09:36:03;32.35;;;11.40;;
31732;SDS011;18312;51.486;7.144;2022-12-07T09:38:31;21.73;;;9.45;;
31732;SDS011;18312;51.486;7.144;2022-12-07T09:40:58;25.85;;;10.50;;
31732;SDS011;18312;51.486;7.144;2022-12-07T09:43:32;18.92;;;9.32;;
31732;SDS011;18312;51.486;7.144;2022-12-07T09:46:01;19.60;;;8.87;;
31732;SDS011;18312;51.486;7.144;2022-12-07T09:48:30;19.48;;;8.35;;
31732;SDS011;18312;51.486;7.144;2022-12-07T09:51:00;19.88;;;8.45;;
31732;SDS011;18312;51.486;7.144;2022-12-07T09:53:37;20.42;;;8.57;;
31732;SDS011;18312;51.486;7.144;2022-12-07T09:56:04;21.60;;;7.80;;
31732;SDS011;18312;51.486;7.144;2022-12-07T09:58:32;18.58;;;9.00;;
31732;SDS011;18312;51.486;7.144;2022-12-07T10:01:01;24.67;;;7.90;;
31732;SDS011;18312;51.486;7.144;2022-12-07T10:03:36;21.27;;;8.75;;
31732;SDS011;18312;51.486;7.144;2022-12-07T10:06:07;20.25;;;7.78;;
31732;SDS011;18312;51.486;7.144;2022-12-07T10:08:37;16.52;;;6.85;;
31732;SDS011;18312;51.486;7.144;2022-12-07T10:11:06;19.35;;;7.18;;
31732;SDS011;18312;51.486;7.144;2022-12-07T10:13:36;26.03;;;7.67;;
31732;SDS011;18312;51.486;7.144;2022-12-07T10:16:05;20.10;;;7.18;;
31732;SDS011;18312;51.486;7.144;2022-12-07T10:18:50;19.67;;;7.38;;
31732;SDS011;18312;51.486;7.144;2022-12-07T10:21:19;27.98;;;7.53;;
31732;SDS011;18312;51.486;7.144;2022-12-07T10:23:59;19.55;;;7.75;;
31732;SDS011;18312;51.486;7.144;2022-12-07T10:26:32;22.52;;;7.63;;
31732;SDS011;18312;51.486;7.144;2022-12-07T10:29:00;15.30;;;7.28;;
31732;SDS011;18312;51.486;7.144;2022-12-07T10:31:39;22.77;;;7.15;;
31732;SDS011;18312;51.486;7.144;2022-12-07T10:34:12;27.92;;;7.88;;
31732;SDS011;18312;51.486;7.144;2022-12-07T10:36:48;22.88;;;8.38;;
31732;SDS011;18312;51.486;7.144;2022-12-07T10:39:16;18.77;;;7.22;;
31732;SDS011;18312;51.486;7.144;2022-12-07T10:41:54;21.90;;;6.80;;
31732;SDS011;18312;51.486;7.144;2022-12-07T10:44:23;18.27;;;8.07;;
31732;SDS011;18312;51.486;7.144;2022-12-07T10:47:06;16.67;;;6.70;;
31732;SDS011;18312;51.486;7.144;2022-12-07T10:49:59;20.10;;;7.13;;
31732;SDS011;18312;51.486;7.144;2022-12-07T10:52:58;16.02;;;8.10;;
31732;SDS011;18312;51.486;7.144;2022-12-07T10:55:39;25.15;;;7.78;;
31732;SDS011;18312;51.486;7.144;2022-12-07T10:58:18;22.30;;;8.07;;
31732;SDS011;18312;51.486;7.144;2022-12-07T11:00:58;16.15;;;7.50;;
31732;SDS011;18312;51.486;7.144;2022-12-07T11:03:36;20.80;;;7.10;;
31732;SDS011;18312;51.486;7.144;2022-12-07T11:06:14;21.52;;;6.55;;
31732;SDS011;18312;51.486;7.144;2022-12-07T11:08:55;16.20;;;6.28;;
31732;SDS011;18312;51.486;7.144;2022-12-07T11:11:30;17.45;;;6.05;;
31732;SDS011;18312;51.486;7.144;2022-12-07T11:14:03;13.52;;;4.65;;
31732;SDS011;18312;51.486;7.144;2022-12-07T11:16:43;12.38;;;4.20;;
31732;SDS011;18312;51.486;7.144;2022-12-07T11:19:25;16.27;;;5.10;;
31732;SDS011;18312;51.486;7.144;2022-12-07T11:22:18;9.32;;;3.90;;
31732;SDS011;18312;51.486;7.144;2022-12-07T11:24:53;7.85;;;4.05;;
31732;SDS011;18312;51.486;7.144;2022-12-07T11:27:30;6.13;;;3.08;;
31732;SDS011;18312;51.486;7.144;2022-12-07T11:30:06;10.45;;;3.65;;
31732;SDS011;18312;51.486;7.144;2022-12-07T11:32:45;11.68;;;3.20;;
31732;SDS011;18312;51.486;7.144;2022-12-07T11:35:22;8.68;;;3.25;;
31732;SDS011;18312;51.486;7.144;2022-12-07T11:37:59;4.18;;;2.50;;
31732;SDS011;18312;51.486;7.144;2022-12-07T11:40:34;8.45;;;3.08;;
31732;SDS011;18312;51.486;7.144;2022-12-07T11:43:04;4.82;;;2.95;;
31732;SDS011;18312;51.486;7.144;2022-12-07T11:45:39;9.63;;;3.50;;
31732;SDS011;18312;51.486;7.144;2022-12-07T11:48:10;10.43;;;3.40;;
31732;SDS011;18312;51.486;7.144;2022-12-07T11:50:41;9.73;;;3.20;;
31732;SDS011;18312;51.486;7.144;2022-12-07T11:53:10;13.75;;;3.58;;
31732;SDS011;18312;51.486;7.144;2022-12-07T11:55:45;9.70;;;3.00;;
31732;SDS011;18312;51.486;7.144;2022-12-07T11:58:29;11.50;;;2.58;;
31732;SDS011;18312;51.486;7.144;2022-12-07T12:01:11;8.02;;;3.17;;
31732;SDS011;18312;51.486;7.144;2022-12-07T12:03:46;3.85;;;2.22;;
31732;SDS011;18312;51.486;7.144;2022-12-07T12:06:14;7.10;;;2.22;;
31732;SDS011;18312;51.486;7.144;2022-12-07T12:08:42;11.75;;;3.05;;
31732;SDS011;18312;51.486;7.144;2022-12-07T12:11:16;10.43;;;2.20;;
31732;SDS011;18312;51.486;7.144;2022-12-07T12:14:13;12.65;;;2.55;;
31732;SDS011;18312;51.486;7.144;2022-12-07T12:17:01;4.95;;;2.47;;
31732;SDS011;18312;51.486;7.144;2022-12-07T12:19:58;5.57;;;2.10;;
31732;SDS011;18312;51.486;7.144;2022-12-07T12:22:32;7.45;;;2.22;;
31732;SDS011;18312;51.486;7.144;2022-12-07T12:25:04;16.90;;;2.58;;
31732;SDS011;18312;51.486;7.144;2022-12-07T12:27:35;7.38;;;1.98;;
31732;SDS011;18312;51.486;7.144;2022-12-07T12:30:05;8.95;;;2.42;;
31732;SDS011;18312;51.486;7.144;2022-12-07T12:32:49;7.50;;;1.90;;
31732;SDS011;18312;51.486;7.144;2022-12-07T12:35:22;7.63;;;2.10;;
31732;SDS011;18312;51.486;7.144;2022-12-07T12:40:52;11.55;;;2.88;;
31732;SDS011;18312;51.486;7.144;2022-12-07T12:46:36;6.03;;;2.30;;
31732;SDS011;18312;51.486;7.144;2022-12-07T12:55:12;7.00;;;2.20;;
31732;SDS011;18312;51.486;7.144;2022-12-07T12:57:45;6.85;;;1.95;;
31732;SDS011;18312;51.486;7.144;2022-12-07T13:00:20;5.88;;;1.67;;
31732;SDS011;18312;51.486;7.144;2022-12-07T13:05:31;9.45;;;2.38;;
31732;SDS011;18312;51.486;7.144;2022-12-07T13:08:01;7.30;;;2.50;;
31732;SDS011;18312;51.486;7.144;2022-12-07T13:10:35;10.73;;;2.38;;
31732;SDS011;18312;51.486;7.144;2022-12-07T13:13:25;6.05;;;1.52;;
31732;SDS011;18312;51.486;7.144;2022-12-07T13:18:58;9.82;;;3.45;;
31732;SDS011;18312;51.486;7.144;2022-12-07T13:21:42;8.77;;;2.88;;
31732;SDS011;18312;51.486;7.144;2022-12-07T13:24:10;7.95;;;2.97;;
31732;SDS011;18312;51.486;7.144;2022-12-07T13:26:39;13.00;;;4.05;;
31732;SDS011;18312;51.486;7.144;2022-12-07T13:29:10;16.08;;;3.83;;
31732;SDS011;18312;51.486;7.144;2022-12-07T13:31:47;7.15;;;3.22;;
31732;SDS011;18312;51.486;7.144;2022-12-07T13:34:30;8.98;;;2.95;;
31732;SDS011;18312;51.486;7.144;2022-12-07T13:37:01;13.23;;;3.90;;
31732;SDS011;18312;51.486;7.144;2022-12-07T13:39:32;6.15;;;2.80;;
31732;SDS011;18312;51.486;7.144;2022-12-07T13:42:06;9.07;;;3.80;;
31732;SDS011;18312;51.486;7.144;2022-12-07T13:44:41;11.98;;;2.97;;
31732;SDS011;18312;51.486;7.144;2022-12-07T13:47:09;10.55;;;3.80;;
31732;SDS011;18312;51.486;7.144;2022-12-07T13:49:47;15.02;;;3.25;;
31732;SDS011;18312;51.486;7.144;2022-12-07T13:52:16;13.77;;;4.43;;
31732;SDS011;18312;51.486;7.144;2022-12-07T13:54:45;19.10;;;5.97;;
31732;SDS011;18312;51.486;7.144;2022-12-07T13:57:13;18.65;;;5.60;;
31732;SDS011;18312;51.486;7.144;2022-12-07T13:59:40;20.27;;;5.15;;
31732;SDS011;18312;51.486;7.144;2022-12-07T14:02:16;3.80;;;2.08;;
31732;SDS011;18312;51.486;7.144;2022-12-07T14:04:47;5.10;;;1.95;;
31732;SDS011;18312;51.486;7.144;2022-12-07T14:07:21;6.28;;;2.45;;
31732;SDS011;18312;51.486;7.144;2022-12-07T14:09:54;4.78;;;2.03;;
31732;SDS011;18312;51.486;7.144;2022-12-07T14:12:26;3.42;;;1.63;;
31732;SDS011;18312;51.486;7.144;2022-12-07T14:14:55;7.07;;;2.20;;
31732;SDS011;18312;51.486;7.144;2022-12-07T14:17:24;4.43;;;1.90;;
31732;SDS011;18312;51.486;7.144;2022-12-07T14:19:54;7.05;;;1.95;;
31732;SDS011;18312;51.486;7.144;2022-12-07T14:24:51;2.92;;;1.90;;
31732;SDS011;18312;51.486;7.144;2022-12-07T14:27:24;6.50;;;2.10;;
31732;SDS011;18312;51.486;7.144;2022-12-07T14:29:58;12.55;;;3.17;;
31732;SDS011;18312;51.486;7.144;2022-12-07T14:32:28;4.35;;;1.92;;
31732;SDS011;18312;51.486;7.144;2022-12-07T14:35:01;6.78;;;3.90;;
31732;SDS011;18312;51.486;7.144;2022-12-07T14:37:35;10.50;;;2.72;;
31732;SDS011;18312;51.486;7.144;2022-12-07T14:40:03;8.00;;;2.83;;
31732;SDS011;18312;51.486;7.144;2022-12-07T14:42:31;6.70;;;2.88;;
31732;SDS011;18312;51.486;7.144;2022-12-07T14:45:00;7.68;;;2.80;;
31732;SDS011;18312;51.486;7.144;2022-12-07T14:47:27;9.15;;;3.03;;
31732;SDS011;18312;51.486;7.144;2022-12-07T14:49:54;5.47;;;3.10;;
31732;SDS011;18312;51.486;7.144;2022-12-07T14:52:31;5.10;;;3.10;;
31732;SDS011;18312;51.486;7.144;2022-12-07T14:54:59;12.35;;;3.00;;
31732;SDS011;18312;51.486;7.144;2022-12-07T14:57:26;9.95;;;3.00;;
31732;SDS011;18312;51.486;7.144;2022-12-07T14:59:52;10.57;;;3.20;;
31732;SDS011;18312;51.486;7.144;2022-12-07T15:02:20;12.93;;;4.75;;
31732;SDS011;18312;51.486;7.144;2022-12-07T15:04:47;7.97;;;3.45;;
31732;SDS011;18312;51.486;7.144;2022-12-07T15:07:15;6.05;;;3.00;;
31732;SDS011;18312;51.486;7.144;2022-12-07T15:09:47;11.90;;;4.40;;
31732;SDS011;18312;51.486;7.144;2022-12-07T15:12:14;9.30;;;3.10;;
31732;SDS011;18312;51.486;7.144;2022-12-07T15:14:42;18.42;;;4.43;;
31732;SDS011;18312;51.486;7.144;2022-12-07T15:17:09;19.40;;;4.75;;
31732;SDS011;18312;51.486;7.144;2022-12-07T15:19:38;16.33;;;4.70;;
31732;SDS011;18312;51.486;7.144;2022-12-07T15:22:05;15.65;;;5.07;;